sensor_id;sensor_type;location;lat;lon;timestamp;P1;durP1;ratioP1;P2;durP2;ratioP2
8626;SDS011;4351;51.422;6.794;2023-09-30T00:00:23;11.63;;;3.77;;
8626;SDS011;4351;51.422;6.794;2023-09-30T00:02:51;11.90;;;4.37;;
8626;SDS011;4351;51.422;6.794;2023-09-30T00:05:18;10.50;;;4.27;;
8626;SDS011;4351;51.422;6.794;2023-09-30T00:07:46;10.17;;;3.87;;
8626;SDS011;4351;51.422;6.794;2023-09-30T00:10:14;10.70;;;3.77;;
8626;SDS011;4351;51.422;6.794;2023-09-30T00:12:43;12.67;;;4.03;;
8626;SDS011;4351;51.422;6.794;2023-09-30T00:15:12;10.67;;;3.77;;
8626;SDS011;4351;51.422;6.794;2023-09-30T00:17:39;12.50;;;3.87;;
8626;SDS011;4351;51.422;6.794;2023-09-30T00:20:08;9.53;;;3.53;;
8626;SDS011;4351;51.422;6.794;2023-09-30T00:22:36;10.87;;;4.00;;
8626;SDS011;4351;51.422;6.794;2023-09-30T00:25:04;10.03;;;3.70;;
8626;SDS011;4351;51.422;6.794;2023-09-30T00:27:32;8.80;;;3.70;;
8626;SDS011;4351;51.422;6.794;2023-09-30T00:30:01;11.83;;;3.80;;
8626;SDS011;4351;51.422;6.794;2023-09-30T00:32:30;9.60;;;3.70;;
8626;SDS011;4351;51.422;6.794;2023-09-30T00:34:58;11.77;;;3.87;;
8626;SDS011;4351;51.422;6.794;2023-09-30T00:37:25;12.43;;;4.03;;
8626;SDS011;4351;51.422;6.794;2023-09-30T00:39:53;10.73;;;4.20;;
8626;SDS011;4351;51.422;6.794;2023-09-30T00:42:21;12.83;;;4.40;;
8626;SDS011;4351;51.422;6.794;2023-09-30T00:44:49;9.63;;;4.43;;
8626;SDS011;4351;51.422;6.794;2023-09-30T00:47:18;13.67;;;4.57;;
8626;SDS011;4351;51.422;6.794;2023-09-30T00:49:48;14.43;;;4.50;;
8626;SDS011;4351;51.422;6.794;2023-09-30T00:52:16;11.83;;;3.73;;
8626;SDS011;4351;51.422;6.794;2023-09-30T00:54:44;11.00;;;4.70;;
8626;SDS011;4351;51.422;6.794;2023-09-30T00:57:13;10.23;;;4.17;;
8626;SDS011;4351;51.422;6.794;2023-09-30T00:59:40;11.17;;;4.20;;
8626;SDS011;4351;51.422;6.794;2023-09-30T01:02:08;13.10;;;4.87;;
8626;SDS011;4351;51.422;6.794;2023-09-30T01:04:37;11.07;;;4.60;;
8626;SDS011;4351;51.422;6.794;2023-09-30T01:07:07;12.93;;;4.90;;
8626;SDS011;4351;51.422;6.794;2023-09-30T01:09:35;10.00;;;4.50;;
8626;SDS011;4351;51.422;6.794;2023-09-30T01:12:04;8.47;;;4.33;;
8626;SDS011;4351;51.422;6.794;2023-09-30T01:14:32;11.73;;;4.60;;
8626;SDS011;4351;51.422;6.794;2023-09-30T01:17:01;15.73;;;5.50;;
8626;SDS011;4351;51.422;6.794;2023-09-30T01:19:30;17.07;;;5.53;;
8626;SDS011;4351;51.422;6.794;2023-09-30T01:21:59;10.80;;;5.03;;
8626;SDS011;4351;51.422;6.794;2023-09-30T01:24:27;14.07;;;5.87;;
8626;SDS011;4351;51.422;6.794;2023-09-30T01:26:55;14.63;;;5.10;;
8626;SDS011;4351;51.422;6.794;2023-09-30T01:29:24;14.07;;;5.27;;
8626;SDS011;4351;51.422;6.794;2023-09-30T01:31:52;12.60;;;5.03;;
8626;SDS011;4351;51.422;6.794;2023-09-30T01:34:21;13.37;;;5.10;;
8626;SDS011;4351;51.422;6.794;2023-09-30T01:36:49;10.90;;;5.50;;
8626;SDS011;4351;51.422;6.794;2023-09-30T01:39:18;14.37;;;4.70;;
8626;SDS011;4351;51.422;6.794;2023-09-30T01:41:46;12.10;;;5.10;;
8626;SDS011;4351;51.422;6.794;2023-09-30T01:44:14;13.43;;;5.10;;
8626;SDS011;4351;51.422;6.794;2023-09-30T01:46:42;14.43;;;5.33;;
8626;SDS011;4351;51.422;6.794;2023-09-30T01:49:10;10.77;;;4.97;;
8626;SDS011;4351;51.422;6.794;2023-09-30T01:51:37;12.50;;;5.30;;
8626;SDS011;4351;51.422;6.794;2023-09-30T01:54:05;11.87;;;5.00;;
8626;SDS011;4351;51.422;6.794;2023-09-30T01:56:35;12.53;;;5.40;;
8626;SDS011;4351;51.422;6.794;2023-09-30T01:59:03;12.53;;;5.50;;
8626;SDS011;4351;51.422;6.794;2023-09-30T02:01:31;13.70;;;5.53;;
8626;SDS011;4351;51.422;6.794;2023-09-30T02:03:58;12.17;;;5.47;;
8626;SDS011;4351;51.422;6.794;2023-09-30T02:06:27;13.80;;;5.60;;
8626;SDS011;4351;51.422;6.794;2023-09-30T02:08:55;10.20;;;4.53;;
8626;SDS011;4351;51.422;6.794;2023-09-30T02:11:22;13.17;;;5.77;;
8626;SDS011;4351;51.422;6.794;2023-09-30T02:13:51;13.73;;;5.30;;
8626;SDS011;4351;51.422;6.794;2023-09-30T02:16:19;12.77;;;5.50;;
8626;SDS011;4351;51.422;6.794;2023-09-30T02:18:47;16.60;;;5.33;;
8626;SDS011;4351;51.422;6.794;2023-09-30T02:21:17;12.20;;;5.20;;
8626;SDS011;4351;51.422;6.794;2023-09-30T02:23:45;11.60;;;5.10;;
8626;SDS011;4351;51.422;6.794;2023-09-30T02:26:14;11.00;;;5.00;;
8626;SDS011;4351;51.422;6.794;2023-09-30T02:28:42;11.43;;;5.27;;
8626;SDS011;4351;51.422;6.794;2023-09-30T02:31:13;10.90;;;5.10;;
8626;SDS011;4351;51.422;6.794;2023-09-30T02:33:40;12.10;;;5.40;;
8626;SDS011;4351;51.422;6.794;2023-09-30T02:36:08;12.77;;;5.27;;
8626;SDS011;4351;51.422;6.794;2023-09-30T02:38:36;11.17;;;5.00;;
8626;SDS011;4351;51.422;6.794;2023-09-30T02:41:04;13.47;;;5.77;;
8626;SDS011;4351;51.422;6.794;2023-09-30T02:43:31;11.57;;;5.30;;
8626;SDS011;4351;51.422;6.794;2023-09-30T02:46:00;14.17;;;5.47;;
8626;SDS011;4351;51.422;6.794;2023-09-30T02:48:29;12.70;;;5.17;;
8626;SDS011;4351;51.422;6.794;2023-09-30T02:50:57;12.97;;;4.70;;
8626;SDS011;4351;51.422;6.794;2023-09-30T02:53:25;12.27;;;5.43;;
8626;SDS011;4351;51.422;6.794;2023-09-30T02:55:52;12.30;;;5.23;;
8626;SDS011;4351;51.422;6.794;2023-09-30T02:58:23;11.77;;;5.43;;
8626;SDS011;4351;51.422;6.794;2023-09-30T03:00:52;11.47;;;5.20;;
8626;SDS011;4351;51.422;6.794;2023-09-30T03:03:20;13.40;;;5.23;;
8626;SDS011;4351;51.422;6.794;2023-09-30T03:05:53;11.63;;;5.20;;
8626;SDS011;4351;51.422;6.794;2023-09-30T03:08:21;15.30;;;5.70;;
8626;SDS011;4351;51.422;6.794;2023-09-30T03:10:51;10.57;;;5.03;;
8626;SDS011;4351;51.422;6.794;2023-09-30T03:13:19;11.07;;;5.10;;
8626;SDS011;4351;51.422;6.794;2023-09-30T03:15:47;12.20;;;5.23;;
8626;SDS011;4351;51.422;6.794;2023-09-30T03:18:16;12.90;;;4.97;;
8626;SDS011;4351;51.422;6.794;2023-09-30T03:20:48;12.57;;;4.90;;
8626;SDS011;4351;51.422;6.794;2023-09-30T03:23:18;9.57;;;4.60;;
8626;SDS011;4351;51.422;6.794;2023-09-30T03:25:46;12.70;;;5.00;;
8626;SDS011;4351;51.422;6.794;2023-09-30T03:28:14;13.67;;;5.50;;
8626;SDS011;4351;51.422;6.794;2023-09-30T03:30:41;11.20;;;5.00;;
8626;SDS011;4351;51.422;6.794;2023-09-30T03:33:09;10.07;;;5.00;;
8626;SDS011;4351;51.422;6.794;2023-09-30T03:35:36;10.97;;;5.00;;
8626;SDS011;4351;51.422;6.794;2023-09-30T03:38:04;13.47;;;5.77;;
8626;SDS011;4351;51.422;6.794;2023-09-30T03:40:34;12.70;;;5.60;;
8626;SDS011;4351;51.422;6.794;2023-09-30T03:43:04;12.27;;;5.10;;
8626;SDS011;4351;51.422;6.794;2023-09-30T03:45:32;11.80;;;5.53;;
8626;SDS011;4351;51.422;6.794;2023-09-30T03:48:01;11.20;;;5.00;;
8626;SDS011;4351;51.422;6.794;2023-09-30T03:50:29;12.23;;;5.33;;
8626;SDS011;4351;51.422;6.794;2023-09-30T03:53:00;9.50;;;5.23;;
8626;SDS011;4351;51.422;6.794;2023-09-30T03:55:28;14.03;;;5.27;;
8626;SDS011;4351;51.422;6.794;2023-09-30T03:57:58;12.90;;;5.47;;
8626;SDS011;4351;51.422;6.794;2023-09-30T04:00:26;10.50;;;5.23;;
8626;SDS011;4351;51.422;6.794;2023-09-30T04:02:55;13.47;;;5.40;;
8626;SDS011;4351;51.422;6.794;2023-09-30T04:05:25;13.10;;;5.70;;
8626;SDS011;4351;51.422;6.794;2023-09-30T04:07:56;13.27;;;5.80;;
8626;SDS011;4351;51.422;6.794;2023-09-30T04:10:24;11.27;;;5.67;;
8626;SDS011;4351;51.422;6.794;2023-09-30T04:12:51;12.57;;;5.77;;
8626;SDS011;4351;51.422;6.794;2023-09-30T04:15:22;14.20;;;6.03;;
8626;SDS011;4351;51.422;6.794;2023-09-30T04:17:49;14.17;;;6.30;;
8626;SDS011;4351;51.422;6.794;2023-09-30T04:20:18;13.23;;;5.60;;
8626;SDS011;4351;51.422;6.794;2023-09-30T04:22:49;15.40;;;5.73;;
8626;SDS011;4351;51.422;6.794;2023-09-30T04:25:17;11.73;;;5.70;;
8626;SDS011;4351;51.422;6.794;2023-09-30T04:27:46;13.70;;;5.70;;
8626;SDS011;4351;51.422;6.794;2023-09-30T04:30:17;15.00;;;6.13;;
8626;SDS011;4351;51.422;6.794;2023-09-30T04:32:46;13.60;;;6.13;;
8626;SDS011;4351;51.422;6.794;2023-09-30T04:35:14;14.57;;;6.07;;
8626;SDS011;4351;51.422;6.794;2023-09-30T04:37:42;13.37;;;5.70;;
8626;SDS011;4351;51.422;6.794;2023-09-30T04:40:10;12.30;;;6.33;;
8626;SDS011;4351;51.422;6.794;2023-09-30T04:42:42;16.03;;;5.57;;
8626;SDS011;4351;51.422;6.794;2023-09-30T04:45:11;12.80;;;5.90;;
8626;SDS011;4351;51.422;6.794;2023-09-30T04:47:39;15.70;;;6.13;;
8626;SDS011;4351;51.422;6.794;2023-09-30T04:50:08;13.60;;;5.80;;
8626;SDS011;4351;51.422;6.794;2023-09-30T04:52:37;15.00;;;5.87;;
8626;SDS011;4351;51.422;6.794;2023-09-30T04:55:07;13.30;;;6.03;;
8626;SDS011;4351;51.422;6.794;2023-09-30T04:57:35;14.13;;;6.17;;
8626;SDS011;4351;51.422;6.794;2023-09-30T05:00:03;12.90;;;5.97;;
8626;SDS011;4351;51.422;6.794;2023-09-30T05:02:37;12.87;;;5.43;;
8626;SDS011;4351;51.422;6.794;2023-09-30T05:05:05;12.93;;;6.07;;
8626;SDS011;4351;51.422;6.794;2023-09-30T05:07:35;18.37;;;7.13;;
8626;SDS011;4351;51.422;6.794;2023-09-30T05:10:03;15.10;;;6.10;;
8626;SDS011;4351;51.422;6.794;2023-09-30T05:12:36;13.37;;;5.97;;
8626;SDS011;4351;51.422;6.794;2023-09-30T05:15:05;15.20;;;6.17;;
8626;SDS011;4351;51.422;6.794;2023-09-30T05:17:33;15.93;;;6.67;;
8626;SDS011;4351;51.422;6.794;2023-09-30T05:20:00;13.00;;;6.50;;
8626;SDS011;4351;51.422;6.794;2023-09-30T05:22:29;12.93;;;6.40;;
8626;SDS011;4351;51.422;6.794;2023-09-30T05:24:58;12.47;;;6.40;;
8626;SDS011;4351;51.422;6.794;2023-09-30T05:27:25;13.23;;;6.23;;
8626;SDS011;4351;51.422;6.794;2023-09-30T05:29:53;12.27;;;6.60;;
8626;SDS011;4351;51.422;6.794;2023-09-30T05:32:21;13.83;;;6.37;;
8626;SDS011;4351;51.422;6.794;2023-09-30T05:34:49;14.40;;;6.87;;
8626;SDS011;4351;51.422;6.794;2023-09-30T05:37:19;16.03;;;6.47;;
8626;SDS011;4351;51.422;6.794;2023-09-30T05:39:48;14.40;;;7.00;;
8626;SDS011;4351;51.422;6.794;2023-09-30T05:42:17;12.80;;;6.30;;
8626;SDS011;4351;51.422;6.794;2023-09-30T05:44:46;13.33;;;6.37;;
8626;SDS011;4351;51.422;6.794;2023-09-30T05:47:14;14.97;;;6.30;;
8626;SDS011;4351;51.422;6.794;2023-09-30T05:49:43;12.37;;;6.57;;
8626;SDS011;4351;51.422;6.794;2023-09-30T05:52:10;14.00;;;6.43;;
8626;SDS011;4351;51.422;6.794;2023-09-30T05:54:38;11.70;;;6.10;;
8626;SDS011;4351;51.422;6.794;2023-09-30T05:57:06;15.03;;;6.97;;
8626;SDS011;4351;51.422;6.794;2023-09-30T05:59:36;12.93;;;6.33;;
8626;SDS011;4351;51.422;6.794;2023-09-30T06:02:04;14.50;;;6.77;;
8626;SDS011;4351;51.422;6.794;2023-09-30T06:04:32;16.70;;;7.07;;
8626;SDS011;4351;51.422;6.794;2023-09-30T06:07:00;14.00;;;6.60;;
8626;SDS011;4351;51.422;6.794;2023-09-30T06:09:28;12.73;;;6.53;;
8626;SDS011;4351;51.422;6.794;2023-09-30T06:11:57;13.47;;;6.53;;
8626;SDS011;4351;51.422;6.794;2023-09-30T06:14:26;15.27;;;6.77;;
8626;SDS011;4351;51.422;6.794;2023-09-30T06:16:56;11.00;;;6.20;;
8626;SDS011;4351;51.422;6.794;2023-09-30T06:19:23;13.20;;;7.07;;
8626;SDS011;4351;51.422;6.794;2023-09-30T06:21:52;13.60;;;6.20;;
8626;SDS011;4351;51.422;6.794;2023-09-30T06:24:20;14.53;;;7.13;;
8626;SDS011;4351;51.422;6.794;2023-09-30T06:26:48;19.37;;;7.13;;
8626;SDS011;4351;51.422;6.794;2023-09-30T06:29:16;16.80;;;7.43;;
8626;SDS011;4351;51.422;6.794;2023-09-30T06:31:44;14.33;;;7.43;;
8626;SDS011;4351;51.422;6.794;2023-09-30T06:34:13;15.50;;;7.90;;
8626;SDS011;4351;51.422;6.794;2023-09-30T06:36:41;15.90;;;7.80;;
8626;SDS011;4351;51.422;6.794;2023-09-30T06:39:08;12.70;;;6.90;;
8626;SDS011;4351;51.422;6.794;2023-09-30T06:41:36;15.07;;;7.13;;
8626;SDS011;4351;51.422;6.794;2023-09-30T06:44:10;16.87;;;7.47;;
8626;SDS011;4351;51.422;6.794;2023-09-30T06:46:39;17.47;;;8.40;;
8626;SDS011;4351;51.422;6.794;2023-09-30T06:49:09;16.77;;;7.03;;
8626;SDS011;4351;51.422;6.794;2023-09-30T06:51:38;18.63;;;8.00;;
8626;SDS011;4351;51.422;6.794;2023-09-30T06:54:06;14.43;;;7.67;;
8626;SDS011;4351;51.422;6.794;2023-09-30T06:56:34;13.43;;;6.60;;
8626;SDS011;4351;51.422;6.794;2023-09-30T06:59:02;14.70;;;7.10;;
8626;SDS011;4351;51.422;6.794;2023-09-30T07:01:30;14.57;;;6.90;;
8626;SDS011;4351;51.422;6.794;2023-09-30T07:03:58;15.77;;;7.77;;
8626;SDS011;4351;51.422;6.794;2023-09-30T07:06:26;16.07;;;7.93;;
8626;SDS011;4351;51.422;6.794;2023-09-30T07:08:55;17.47;;;7.47;;
8626;SDS011;4351;51.422;6.794;2023-09-30T07:11:27;14.83;;;8.57;;
8626;SDS011;4351;51.422;6.794;2023-09-30T07:13:55;16.53;;;7.70;;
8626;SDS011;4351;51.422;6.794;2023-09-30T07:16:23;17.00;;;8.97;;
8626;SDS011;4351;51.422;6.794;2023-09-30T07:18:50;17.87;;;8.30;;
8626;SDS011;4351;51.422;6.794;2023-09-30T07:21:18;16.40;;;8.83;;
8626;SDS011;4351;51.422;6.794;2023-09-30T07:23:46;22.13;;;9.00;;
8626;SDS011;4351;51.422;6.794;2023-09-30T07:26:15;18.47;;;9.23;;
8626;SDS011;4351;51.422;6.794;2023-09-30T07:28:43;17.10;;;8.13;;
8626;SDS011;4351;51.422;6.794;2023-09-30T07:31:11;17.97;;;9.27;;
8626;SDS011;4351;51.422;6.794;2023-09-30T07:33:39;18.23;;;8.47;;
8626;SDS011;4351;51.422;6.794;2023-09-30T07:36:07;18.17;;;8.57;;
8626;SDS011;4351;51.422;6.794;2023-09-30T07:38:35;16.77;;;9.43;;
8626;SDS011;4351;51.422;6.794;2023-09-30T07:41:03;19.50;;;9.67;;
8626;SDS011;4351;51.422;6.794;2023-09-30T07:43:33;21.10;;;9.57;;
8626;SDS011;4351;51.422;6.794;2023-09-30T07:46:04;19.73;;;9.97;;
8626;SDS011;4351;51.422;6.794;2023-09-30T07:48:33;20.10;;;9.37;;
8626;SDS011;4351;51.422;6.794;2023-09-30T07:51:01;19.93;;;10.10;;
8626;SDS011;4351;51.422;6.794;2023-09-30T07:53:29;20.03;;;10.23;;
8626;SDS011;4351;51.422;6.794;2023-09-30T07:55:57;20.53;;;10.80;;
8626;SDS011;4351;51.422;6.794;2023-09-30T07:58:25;18.50;;;11.20;;
8626;SDS011;4351;51.422;6.794;2023-09-30T08:00:55;20.63;;;10.97;;
8626;SDS011;4351;51.422;6.794;2023-09-30T08:03:22;19.03;;;10.37;;
8626;SDS011;4351;51.422;6.794;2023-09-30T08:05:50;20.57;;;9.40;;
8626;SDS011;4351;51.422;6.794;2023-09-30T08:08:18;18.37;;;10.10;;
8626;SDS011;4351;51.422;6.794;2023-09-30T08:10:46;17.50;;;10.43;;
8626;SDS011;4351;51.422;6.794;2023-09-30T08:13:14;21.03;;;11.50;;
8626;SDS011;4351;51.422;6.794;2023-09-30T08:15:43;20.23;;;10.67;;
8626;SDS011;4351;51.422;6.794;2023-09-30T08:18:13;19.67;;;11.23;;
8626;SDS011;4351;51.422;6.794;2023-09-30T08:20:40;19.47;;;10.90;;
8626;SDS011;4351;51.422;6.794;2023-09-30T08:23:08;24.10;;;11.20;;
8626;SDS011;4351;51.422;6.794;2023-09-30T08:25:36;24.57;;;12.90;;
8626;SDS011;4351;51.422;6.794;2023-09-30T08:28:04;24.30;;;12.27;;
8626;SDS011;4351;51.422;6.794;2023-09-30T08:30:32;20.60;;;11.20;;
8626;SDS011;4351;51.422;6.794;2023-09-30T08:33:00;21.77;;;11.67;;
8626;SDS011;4351;51.422;6.794;2023-09-30T08:35:29;17.77;;;10.80;;
8626;SDS011;4351;51.422;6.794;2023-09-30T08:37:58;21.80;;;11.30;;
8626;SDS011;4351;51.422;6.794;2023-09-30T08:40:25;21.60;;;11.67;;
8626;SDS011;4351;51.422;6.794;2023-09-30T08:42:53;22.20;;;12.03;;
8626;SDS011;4351;51.422;6.794;2023-09-30T08:45:21;18.87;;;11.43;;
8626;SDS011;4351;51.422;6.794;2023-09-30T08:47:49;19.47;;;10.13;;
8626;SDS011;4351;51.422;6.794;2023-09-30T08:50:17;24.67;;;12.93;;
8626;SDS011;4351;51.422;6.794;2023-09-30T08:52:46;22.47;;;11.40;;
8626;SDS011;4351;51.422;6.794;2023-09-30T08:55:14;21.17;;;11.60;;
8626;SDS011;4351;51.422;6.794;2023-09-30T08:57:42;21.37;;;11.53;;
8626;SDS011;4351;51.422;6.794;2023-09-30T09:00:11;20.47;;;12.23;;
8626;SDS011;4351;51.422;6.794;2023-09-30T09:02:40;18.57;;;11.60;;
8626;SDS011;4351;51.422;6.794;2023-09-30T09:05:09;19.33;;;11.93;;
8626;SDS011;4351;51.422;6.794;2023-09-30T09:07:38;20.57;;;11.30;;
8626;SDS011;4351;51.422;6.794;2023-09-30T09:10:09;18.50;;;10.10;;
8626;SDS011;4351;51.422;6.794;2023-09-30T09:12:37;18.80;;;9.83;;
8626;SDS011;4351;51.422;6.794;2023-09-30T09:15:07;29.77;;;12.03;;
8626;SDS011;4351;51.422;6.794;2023-09-30T09:17:42;23.37;;;10.97;;
8626;SDS011;4351;51.422;6.794;2023-09-30T09:20:11;27.43;;;10.27;;
8626;SDS011;4351;51.422;6.794;2023-09-30T09:22:41;20.27;;;10.37;;
8626;SDS011;4351;51.422;6.794;2023-09-30T09:25:11;21.40;;;9.87;;
8626;SDS011;4351;51.422;6.794;2023-09-30T09:27:39;15.23;;;7.83;;
8626;SDS011;4351;51.422;6.794;2023-09-30T09:30:14;17.30;;;9.67;;
8626;SDS011;4351;51.422;6.794;2023-09-30T09:32:58;15.90;;;8.03;;
8626;SDS011;4351;51.422;6.794;2023-09-30T09:35:26;16.40;;;8.20;;
8626;SDS011;4351;51.422;6.794;2023-09-30T09:37:59;14.47;;;8.53;;
8626;SDS011;4351;51.422;6.794;2023-09-30T09:40:29;16.93;;;8.77;;
8626;SDS011;4351;51.422;6.794;2023-09-30T09:42:57;14.47;;;7.77;;
8626;SDS011;4351;51.422;6.794;2023-09-30T09:45:27;16.40;;;7.97;;
8626;SDS011;4351;51.422;6.794;2023-09-30T09:47:57;22.57;;;9.20;;
8626;SDS011;4351;51.422;6.794;2023-09-30T09:50:25;19.17;;;7.47;;
8626;SDS011;4351;51.422;6.794;2023-09-30T09:52:54;22.90;;;8.50;;
8626;SDS011;4351;51.422;6.794;2023-09-30T09:55:23;17.13;;;8.10;;
8626;SDS011;4351;51.422;6.794;2023-09-30T09:57:52;16.63;;;6.90;;
8626;SDS011;4351;51.422;6.794;2023-09-30T10:00:21;17.77;;;7.00;;
8626;SDS011;4351;51.422;6.794;2023-09-30T10:02:50;16.60;;;6.63;;
8626;SDS011;4351;51.422;6.794;2023-09-30T10:05:19;11.87;;;5.80;;
8626;SDS011;4351;51.422;6.794;2023-09-30T10:07:47;15.03;;;6.33;;
8626;SDS011;4351;51.422;6.794;2023-09-30T10:10:18;15.70;;;5.50;;
8626;SDS011;4351;51.422;6.794;2023-09-30T10:12:47;9.67;;;4.63;;
8626;SDS011;4351;51.422;6.794;2023-09-30T10:18:05;10.93;;;5.73;;
8626;SDS011;4351;51.422;6.794;2023-09-30T10:20:39;9.00;;;4.90;;
8626;SDS011;4351;51.422;6.794;2023-09-30T10:23:17;18.07;;;7.57;;
8626;SDS011;4351;51.422;6.794;2023-09-30T10:25:46;13.63;;;6.70;;
8626;SDS011;4351;51.422;6.794;2023-09-30T10:28:32;16.23;;;8.03;;
8626;SDS011;4351;51.422;6.794;2023-09-30T10:31:09;12.93;;;7.07;;
8626;SDS011;4351;51.422;6.794;2023-09-30T10:36:28;13.93;;;7.13;;
8626;SDS011;4351;51.422;6.794;2023-09-30T10:38:56;13.10;;;6.20;;
8626;SDS011;4351;51.422;6.794;2023-09-30T10:41:48;13.07;;;7.03;;
8626;SDS011;4351;51.422;6.794;2023-09-30T10:44:32;14.93;;;6.30;;
8626;SDS011;4351;51.422;6.794;2023-09-30T10:47:34;9.60;;;4.90;;
8626;SDS011;4351;51.422;6.794;2023-09-30T10:49:50;10.17;;;4.67;;
8626;SDS011;4351;51.422;6.794;2023-09-30T10:52:22;13.07;;;5.63;;
8626;SDS011;4351;51.422;6.794;2023-09-30T10:54:51;11.77;;;4.27;;
8626;SDS011;4351;51.422;6.794;2023-09-30T10:57:26;8.60;;;4.40;;
8626;SDS011;4351;51.422;6.794;2023-09-30T11:00:08;9.50;;;4.23;;
8626;SDS011;4351;51.422;6.794;2023-09-30T11:02:49;7.97;;;3.90;;
8626;SDS011;4351;51.422;6.794;2023-09-30T11:05:20;9.93;;;3.93;;
8626;SDS011;4351;51.422;6.794;2023-09-30T11:08:03;11.13;;;4.00;;
8626;SDS011;4351;51.422;6.794;2023-09-30T11:10:31;9.70;;;4.40;;
8626;SDS011;4351;51.422;6.794;2023-09-30T11:12:59;8.93;;;4.07;;
8626;SDS011;4351;51.422;6.794;2023-09-30T11:15:27;9.93;;;4.80;;
8626;SDS011;4351;51.422;6.794;2023-09-30T11:18:12;9.90;;;4.80;;
8626;SDS011;4351;51.422;6.794;2023-09-30T11:20:41;10.73;;;3.70;;
8626;SDS011;4351;51.422;6.794;2023-09-30T11:23:10;9.03;;;3.60;;
8626;SDS011;4351;51.422;6.794;2023-09-30T11:25:38;12.00;;;4.10;;
8626;SDS011;4351;51.422;6.794;2023-09-30T11:28:14;7.50;;;3.47;;
8626;SDS011;4351;51.422;6.794;2023-09-30T11:30:55;9.50;;;3.40;;
8626;SDS011;4351;51.422;6.794;2023-09-30T11:33:24;8.27;;;3.30;;
8626;SDS011;4351;51.422;6.794;2023-09-30T11:35:56;7.33;;;3.20;;
8626;SDS011;4351;51.422;6.794;2023-09-30T11:38:29;6.10;;;3.20;;
8626;SDS011;4351;51.422;6.794;2023-09-30T11:40:58;9.87;;;3.30;;
8626;SDS011;4351;51.422;6.794;2023-09-30T11:43:27;11.97;;;3.70;;
8626;SDS011;4351;51.422;6.794;2023-09-30T11:46:05;10.20;;;3.63;;
8626;SDS011;4351;51.422;6.794;2023-09-30T11:48:38;8.00;;;3.77;;
8626;SDS011;4351;51.422;6.794;2023-09-30T11:51:07;9.27;;;4.10;;
8626;SDS011;4351;51.422;6.794;2023-09-30T11:53:37;8.43;;;4.13;;
8626;SDS011;4351;51.422;6.794;2023-09-30T11:56:05;7.83;;;3.67;;
8626;SDS011;4351;51.422;6.794;2023-09-30T11:58:35;12.47;;;5.13;;
8626;SDS011;4351;51.422;6.794;2023-09-30T12:01:04;9.90;;;4.60;;
8626;SDS011;4351;51.422;6.794;2023-09-30T12:03:33;7.60;;;4.03;;
8626;SDS011;4351;51.422;6.794;2023-09-30T12:06:06;9.63;;;3.87;;
8626;SDS011;4351;51.422;6.794;2023-09-30T12:08:33;7.97;;;4.43;;
8626;SDS011;4351;51.422;6.794;2023-09-30T12:11:04;7.93;;;4.30;;
8626;SDS011;4351;51.422;6.794;2023-09-30T12:13:32;7.97;;;3.87;;
8626;SDS011;4351;51.422;6.794;2023-09-30T12:15:59;8.60;;;3.83;;
8626;SDS011;4351;51.422;6.794;2023-09-30T12:18:27;10.97;;;4.20;;
8626;SDS011;4351;51.422;6.794;2023-09-30T12:20:55;9.27;;;4.40;;
8626;SDS011;4351;51.422;6.794;2023-09-30T12:23:22;10.00;;;4.20;;
8626;SDS011;4351;51.422;6.794;2023-09-30T12:25:51;8.80;;;4.10;;
8626;SDS011;4351;51.422;6.794;2023-09-30T12:28:38;7.83;;;3.87;;
8626;SDS011;4351;51.422;6.794;2023-09-30T12:31:06;8.63;;;3.70;;
8626;SDS011;4351;51.422;6.794;2023-09-30T12:33:34;7.37;;;3.90;;
8626;SDS011;4351;51.422;6.794;2023-09-30T12:36:02;9.00;;;3.80;;
8626;SDS011;4351;51.422;6.794;2023-09-30T12:38:30;9.73;;;4.17;;
8626;SDS011;4351;51.422;6.794;2023-09-30T12:40:58;10.70;;;3.80;;
8626;SDS011;4351;51.422;6.794;2023-09-30T12:43:27;8.43;;;3.70;;
8626;SDS011;4351;51.422;6.794;2023-09-30T12:45:56;11.63;;;4.10;;
8626;SDS011;4351;51.422;6.794;2023-09-30T12:48:25;7.60;;;3.37;;
8626;SDS011;4351;51.422;6.794;2023-09-30T12:50:53;6.70;;;3.47;;
8626;SDS011;4351;51.422;6.794;2023-09-30T12:53:20;10.17;;;4.07;;
8626;SDS011;4351;51.422;6.794;2023-09-30T12:55:48;8.60;;;3.83;;
8626;SDS011;4351;51.422;6.794;2023-09-30T12:58:15;9.97;;;3.30;;
8626;SDS011;4351;51.422;6.794;2023-09-30T13:00:43;7.33;;;3.40;;
8626;SDS011;4351;51.422;6.794;2023-09-30T13:03:12;5.93;;;3.00;;
8626;SDS011;4351;51.422;6.794;2023-09-30T13:05:42;5.67;;;2.43;;
8626;SDS011;4351;51.422;6.794;2023-09-30T13:08:10;7.30;;;3.03;;
8626;SDS011;4351;51.422;6.794;2023-09-30T13:10:37;8.03;;;2.90;;
8626;SDS011;4351;51.422;6.794;2023-09-30T13:13:05;6.37;;;2.70;;
8626;SDS011;4351;51.422;6.794;2023-09-30T13:15:33;6.37;;;2.67;;
8626;SDS011;4351;51.422;6.794;2023-09-30T13:18:00;8.33;;;3.50;;
8626;SDS011;4351;51.422;6.794;2023-09-30T13:20:31;4.83;;;2.20;;
8626;SDS011;4351;51.422;6.794;2023-09-30T13:22:58;7.80;;;3.17;;
8626;SDS011;4351;51.422;6.794;2023-09-30T13:25:27;7.07;;;3.00;;
8626;SDS011;4351;51.422;6.794;2023-09-30T13:27:54;8.97;;;2.90;;
8626;SDS011;4351;51.422;6.794;2023-09-30T13:30:22;7.70;;;2.83;;
8626;SDS011;4351;51.422;6.794;2023-09-30T13:32:50;8.17;;;2.90;;
8626;SDS011;4351;51.422;6.794;2023-09-30T13:35:18;7.47;;;2.90;;
8626;SDS011;4351;51.422;6.794;2023-09-30T13:37:47;9.17;;;3.03;;
8626;SDS011;4351;51.422;6.794;2023-09-30T13:40:15;8.30;;;2.93;;
8626;SDS011;4351;51.422;6.794;2023-09-30T13:42:43;8.80;;;2.93;;
8626;SDS011;4351;51.422;6.794;2023-09-30T13:45:11;6.40;;;3.10;;
8626;SDS011;4351;51.422;6.794;2023-09-30T13:47:39;8.13;;;3.13;;
8626;SDS011;4351;51.422;6.794;2023-09-30T13:50:08;8.17;;;3.07;;
8626;SDS011;4351;51.422;6.794;2023-09-30T13:52:35;6.23;;;2.60;;
8626;SDS011;4351;51.422;6.794;2023-09-30T13:55:05;9.23;;;3.47;;
8626;SDS011;4351;51.422;6.794;2023-09-30T13:57:33;6.63;;;3.30;;
8626;SDS011;4351;51.422;6.794;2023-09-30T14:00:01;6.63;;;2.93;;
8626;SDS011;4351;51.422;6.794;2023-09-30T14:02:30;5.97;;;2.77;;
8626;SDS011;4351;51.422;6.794;2023-09-30T14:04:58;9.47;;;3.90;;
8626;SDS011;4351;51.422;6.794;2023-09-30T14:07:26;7.60;;;3.40;;
8626;SDS011;4351;51.422;6.794;2023-09-30T14:09:54;9.07;;;4.00;;
8626;SDS011;4351;51.422;6.794;2023-09-30T14:12:23;8.70;;;3.63;;
8626;SDS011;4351;51.422;6.794;2023-09-30T14:14:51;6.50;;;3.90;;
8626;SDS011;4351;51.422;6.794;2023-09-30T14:17:19;7.00;;;4.13;;
8626;SDS011;4351;51.422;6.794;2023-09-30T14:19:47;12.63;;;5.43;;
8626;SDS011;4351;51.422;6.794;2023-09-30T14:22:14;9.13;;;3.97;;
8626;SDS011;4351;51.422;6.794;2023-09-30T14:24:43;6.57;;;3.00;;
8626;SDS011;4351;51.422;6.794;2023-09-30T14:27:11;6.63;;;3.40;;
8626;SDS011;4351;51.422;6.794;2023-09-30T14:29:42;6.73;;;4.07;;
8626;SDS011;4351;51.422;6.794;2023-09-30T14:32:10;7.57;;;3.67;;
8626;SDS011;4351;51.422;6.794;2023-09-30T14:34:38;6.97;;;4.20;;
8626;SDS011;4351;51.422;6.794;2023-09-30T14:37:05;9.70;;;4.80;;
8626;SDS011;4351;51.422;6.794;2023-09-30T14:39:33;12.20;;;7.00;;
8626;SDS011;4351;51.422;6.794;2023-09-30T14:42:01;14.50;;;6.70;;
8626;SDS011;4351;51.422;6.794;2023-09-30T14:44:29;10.47;;;5.93;;
8626;SDS011;4351;51.422;6.794;2023-09-30T14:46:58;10.73;;;5.80;;
8626;SDS011;4351;51.422;6.794;2023-09-30T14:49:26;9.30;;;5.20;;
8626;SDS011;4351;51.422;6.794;2023-09-30T14:51:54;8.80;;;4.30;;
8626;SDS011;4351;51.422;6.794;2023-09-30T14:54:23;11.57;;;4.40;;
8626;SDS011;4351;51.422;6.794;2023-09-30T14:56:51;9.93;;;4.80;;
8626;SDS011;4351;51.422;6.794;2023-09-30T14:59:19;25.93;;;10.50;;
8626;SDS011;4351;51.422;6.794;2023-09-30T15:01:47;15.60;;;8.20;;
8626;SDS011;4351;51.422;6.794;2023-09-30T15:04:17;11.40;;;4.70;;
8626;SDS011;4351;51.422;6.794;2023-09-30T15:06:45;9.10;;;4.50;;
8626;SDS011;4351;51.422;6.794;2023-09-30T15:09:13;14.50;;;7.33;;
8626;SDS011;4351;51.422;6.794;2023-09-30T15:11:41;12.33;;;6.33;;
8626;SDS011;4351;51.422;6.794;2023-09-30T15:14:09;11.53;;;5.20;;
8626;SDS011;4351;51.422;6.794;2023-09-30T15:16:36;12.13;;;4.03;;
8626;SDS011;4351;51.422;6.794;2023-09-30T15:19:05;6.90;;;3.80;;